Terminal Aerodrome Forecast
Issued by NWS

Home | Current Version | Previous Version | Text Only | Print | Product List | Glossary On
Versions: 1 2 3 4 5 6 7 8 9 10 11 12 13 14
000
FTUS45 KRIW 300500
TAFRKS
TAF
KRKS 300540Z 3006/3106 22011KT P6SM SCT120
     FM301100 21010KT P6SM VCSH SCT080 BKN110
     FM301600 21012G18KT P6SM -SHRA BKN080
     FM301900 25022G32KT P6SM VCTS SCT070CB BKN100
     FM310000 23012KT P6SM VCSH SCT090 BKN200=

USA.gov is the U.S. government's official web portal to all federal, state and local government web resources and services.